createdAt,value
2018-07-20T04:49:13.967Z,13.79
2018-07-20T06:27:41.690Z,19.11
2018-07-20T06:28:44.369Z,19.31
2018-07-20T06:41:15.079Z,20.37
2018-07-20T06:42:13.199Z,20.51
2018-07-20T06:43:29.092Z,20.60
2018-07-20T06:46:00.302Z,20.74
2018-07-20T06:49:54.658Z,21.07
2018-07-20T06:50:56.614Z,21.18
2018-07-20T06:53:43.524Z,21.43
2018-07-20T06:54:48.554Z,21.54
2018-07-20T06:55:45.918Z,21.54
2018-07-20T07:05:48.718Z,22.30
2018-07-20T07:11:55.711Z,22.72
2018-07-20T07:12:53.841Z,22.80
2018-07-20T07:21:16.449Z,23.40
2018-07-20T07:22:17.397Z,23.55
2018-07-20T07:23:13.280Z,23.62
2018-07-20T07:24:17.303Z,23.76
2018-07-20T07:25:15.496Z,23.77
2018-07-20T07:27:33.591Z,24.08
2018-07-20T07:30:11.586Z,24.35
2018-07-20T07:31:17.733Z,24.39
2018-07-20T07:32:22.787Z,24.57
2018-07-20T07:33:11.265Z,24.61
2018-07-20T07:34:10.896Z,24.66
2018-07-20T07:35:09.834Z,24.57
2018-07-20T07:36:10.944Z,24.60
2018-07-20T07:37:10.478Z,24.69
2018-07-20T07:38:08.669Z,24.78
2018-07-20T07:39:08.060Z,24.89
2018-07-20T07:40:08.186Z,24.89
2018-07-20T07:41:08.408Z,24.81
2018-07-20T07:42:08.719Z,24.76
2018-07-20T07:43:08.549Z,24.84
2018-07-20T07:44:08.724Z,25.06
2018-07-20T07:45:08.875Z,24.98
2018-07-20T07:46:09.050Z,24.91
2018-07-20T07:47:09.385Z,25.04
2018-07-20T07:48:09.571Z,25.06
2018-07-20T07:49:09.902Z,25.14
2018-07-20T07:50:09.959Z,25.22
2018-07-20T07:51:09.920Z,25.25
2018-07-20T07:52:10.109Z,25.26
2018-07-20T07:53:10.312Z,25.23
2018-07-20T07:54:10.644Z,25.31
2018-07-20T07:55:10.765Z,25.28
2018-07-20T07:56:11.149Z,25.51
2018-07-20T07:57:11.151Z,25.66
2018-07-20T07:58:11.287Z,25.78
2018-07-20T07:59:11.585Z,25.85
2018-07-20T08:00:11.702Z,25.85
2018-07-20T08:01:23.535Z,25.96
2018-07-20T08:02:15.112Z,26.05
2018-07-20T08:03:17.965Z,26.03
2018-07-20T08:04:15.184Z,26.13
2018-07-20T08:05:15.559Z,26.23
2018-07-20T08:06:13.585Z,26.22
2018-07-20T08:07:12.973Z,26.25
2018-07-20T08:08:13.279Z,26.25
2018-07-20T08:09:13.227Z,26.23
2018-07-20T08:10:15.248Z,26.51
2018-07-20T08:11:14.375Z,26.53
2018-07-20T08:12:14.169Z,26.88
2018-07-20T08:13:14.667Z,27.08
2018-07-20T08:14:15.688Z,27.35
2018-07-20T08:15:15.936Z,27.58
2018-07-20T08:16:14.980Z,27.77
2018-07-20T08:17:40.228Z,27.93
2018-07-20T08:19:25.864Z,28.20
2018-07-20T08:25:02.471Z,29.60
2018-07-20T08:26:55.005Z,29.95
2018-07-20T08:31:56.475Z,30.03
2018-07-20T08:36:09.088Z,30.63
2018-07-20T08:39:44.410Z,30.39
2018-07-20T08:40:48.299Z,30.51
2018-07-20T08:41:49.343Z,30.62
2018-07-20T08:42:45.787Z,30.77
2018-07-20T08:43:42.593Z,31.03
2018-07-20T08:44:44.490Z,31.18
2018-07-20T08:45:42.327Z,31.43
2018-07-20T08:46:41.852Z,31.49
2018-07-20T08:47:40.768Z,31.37
2018-07-20T08:48:40.959Z,31.43
2018-07-20T08:49:41.123Z,31.17
2018-07-20T08:50:41.505Z,30.97
2018-07-20T08:51:41.644Z,31.14
2018-07-20T08:52:42.225Z,30.97
2018-07-20T08:53:41.901Z,30.88
2018-07-20T08:54:42.435Z,30.87
2018-07-20T08:55:42.405Z,30.47
2018-07-20T08:56:42.411Z,30.51
2018-07-20T08:57:42.617Z,30.53
2018-07-20T08:58:42.994Z,30.54
2018-07-20T08:59:43.454Z,30.51
2018-07-20T09:00:43.139Z,30.46
2018-07-20T09:01:43.438Z,30.30
2018-07-20T09:02:44.577Z,30.28
2018-07-20T09:03:44.512Z,30.44
2018-07-20T09:04:44.238Z,30.30
2018-07-20T09:05:44.233Z,30.18
2018-07-20T09:06:44.303Z,30.10
2018-07-20T09:07:44.539Z,30.09
2018-07-20T09:08:44.810Z,30.12
2018-07-20T09:09:44.980Z,30.02
2018-07-20T09:10:45.482Z,30.12
2018-07-20T09:11:45.305Z,29.94
2018-07-20T09:12:46.127Z,29.97
2018-07-20T09:14:45.766Z,30.10
2018-07-20T09:15:45.950Z,30.30
2018-07-20T09:16:46.397Z,30.21
2018-07-20T09:17:46.339Z,30.23
2018-07-20T09:18:46.751Z,30.31
2018-07-20T09:19:46.821Z,30.40
2018-07-20T09:20:47.258Z,30.39
2018-07-20T09:21:47.257Z,30.50
2018-07-20T09:22:47.908Z,30.53
2018-07-20T09:23:47.501Z,30.70
2018-07-20T09:24:47.846Z,30.72
2018-07-20T09:25:48.343Z,30.75
2018-07-20T09:26:48.491Z,30.81
2018-07-20T09:27:48.544Z,30.92
2018-07-20T09:28:48.409Z,30.85
2018-07-20T09:29:48.568Z,31.00
2018-07-20T09:30:48.929Z,31.06
2018-07-20T09:31:49.761Z,31.10
2018-07-20T09:32:49.582Z,31.00
2018-07-20T09:33:49.809Z,31.15
2018-07-20T09:34:49.515Z,31.27
2018-07-20T09:35:50.398Z,31.34
2018-07-20T09:36:50.184Z,31.42
2018-07-20T09:37:50.171Z,31.31
2018-07-20T09:38:50.381Z,31.37
2018-07-20T09:39:52.451Z,31.42
2018-07-20T09:40:50.844Z,31.33
2018-07-20T09:41:51.119Z,31.40
2018-07-20T09:42:51.164Z,31.49
2018-07-20T09:43:51.081Z,31.46
2018-07-20T09:44:51.257Z,31.56
2018-07-20T09:45:51.399Z,31.58
2018-07-20T09:46:51.635Z,31.56
2018-07-20T09:47:52.674Z,31.70
2018-07-20T09:48:51.984Z,31.73
2018-07-20T09:49:52.194Z,31.87
2018-07-20T09:50:52.792Z,32.00
2018-07-20T09:51:52.563Z,32.08
2018-07-20T09:52:52.716Z,32.09
2018-07-20T09:53:52.888Z,32.08
2018-07-20T09:54:53.043Z,32.23
2018-07-20T09:55:53.174Z,32.14
2018-07-20T09:56:53.343Z,32.19
2018-07-20T09:57:53.590Z,32.27
2018-07-20T09:58:53.731Z,32.45
2018-07-20T09:59:54.035Z,32.65
2018-07-20T10:00:54.573Z,32.89
2018-07-20T10:01:54.358Z,33.15
2018-07-20T10:02:54.498Z,33.62
2018-07-20T10:03:54.975Z,34.02
2018-07-20T10:04:56.219Z,34.24
2018-07-20T10:05:55.176Z,34.51
2018-07-20T10:06:55.292Z,34.81
2018-07-20T10:07:55.470Z,34.71
2018-07-20T10:08:55.551Z,34.90
2018-07-20T10:09:55.925Z,34.88
2018-07-20T10:10:55.912Z,35.08
2018-07-20T10:11:56.216Z,35.29
2018-07-20T10:12:56.640Z,35.52
2018-07-20T10:13:56.714Z,35.78
2018-07-20T10:14:56.893Z,35.93
2018-07-20T10:15:57.068Z,36.05
2018-07-20T10:16:57.261Z,36.08
2018-07-20T10:17:57.368Z,36.35
2018-07-20T10:18:57.831Z,36.18
2018-07-20T10:19:57.950Z,36.25
2018-07-20T10:20:58.062Z,35.73
2018-07-20T10:21:58.341Z,35.49
2018-07-20T10:22:58.331Z,35.64
2018-07-20T10:23:58.415Z,35.82
2018-07-20T10:24:58.549Z,36.14
2018-07-20T10:25:58.838Z,36.17
2018-07-20T10:26:58.931Z,36.18
2018-07-20T10:27:59.202Z,36.04
2018-07-20T10:28:59.309Z,36.09
2018-07-20T10:29:59.396Z,36.17
2018-07-20T10:30:59.584Z,36.35
2018-07-20T10:31:59.813Z,36.46
2018-07-20T10:33:00.227Z,36.92
2018-07-20T10:34:00.294Z,37.08
2018-07-20T10:35:00.346Z,37.47
2018-07-20T10:36:00.573Z,36.27
2018-07-20T10:37:00.743Z,35.82
2018-07-20T10:38:01.035Z,35.97
2018-07-20T10:39:01.072Z,35.95
2018-07-20T10:40:01.397Z,36.25
2018-07-20T10:41:01.655Z,36.17
2018-07-20T10:42:01.541Z,35.90
2018-07-20T10:43:01.717Z,35.89
2018-07-20T10:44:02.054Z,35.95
2018-07-20T10:45:02.081Z,36.27
2018-07-20T10:46:02.389Z,35.67
2018-07-20T10:47:03.008Z,35.92
2018-07-20T10:48:02.856Z,36.18
2018-07-20T10:49:03.194Z,35.90
2018-07-20T10:50:03.555Z,35.61
2018-07-20T10:51:17.011Z,35.18
2018-07-20T10:52:06.652Z,34.96
2018-07-20T10:53:08.972Z,34.23
2018-07-20T10:54:08.835Z,34.58
2018-07-20T10:55:06.892Z,34.73
2018-07-20T10:56:04.607Z,34.67
2018-07-20T10:57:04.952Z,34.33
2018-07-20T10:58:04.694Z,34.81
2018-07-20T10:59:04.879Z,34.61
2018-07-20T11:00:05.128Z,34.86
2018-07-20T11:01:05.297Z,34.90
2018-07-20T11:02:05.495Z,34.95
2018-07-20T11:03:05.842Z,35.26
2018-07-20T11:04:05.936Z,35.23
2018-07-20T11:05:05.980Z,35.04
2018-07-20T11:06:06.360Z,34.90
2018-07-20T11:07:06.447Z,34.64
2018-07-20T11:08:06.529Z,35.02
2018-07-20T11:09:06.894Z,35.18
2018-07-20T11:10:07.074Z,35.39
2018-07-20T11:11:07.120Z,35.31
2018-07-20T11:12:07.441Z,35.36
2018-07-20T11:13:07.462Z,35.19
2018-07-20T11:14:07.775Z,35.31
2018-07-20T11:15:07.971Z,35.37
2018-07-20T11:16:08.149Z,35.27
2018-07-20T11:17:08.260Z,35.27
2018-07-20T11:18:08.591Z,35.18
2018-07-20T11:19:08.776Z,35.12
2018-07-20T11:20:08.861Z,34.99
2018-07-20T11:21:09.372Z,34.97
2018-07-20T11:22:09.240Z,34.75
2018-07-20T11:23:09.468Z,34.57
2018-07-20T11:24:09.641Z,34.51
2018-07-20T11:25:09.892Z,34.64
2018-07-20T11:26:10.051Z,34.58
2018-07-20T11:27:10.366Z,34.77
2018-07-20T11:28:10.503Z,34.83
2018-07-20T11:29:10.659Z,35.05
2018-07-20T11:30:10.925Z,35.22
2018-07-20T11:31:11.147Z,35.39
2018-07-20T11:32:11.453Z,35.60
2018-07-20T11:33:11.504Z,35.64
2018-07-20T11:34:11.683Z,35.63
2018-07-20T11:35:11.779Z,35.64
2018-07-20T11:36:11.887Z,35.68
2018-07-20T11:37:12.061Z,35.73
2018-07-20T11:38:12.407Z,35.66
2018-07-20T11:39:12.668Z,35.52
2018-07-20T11:40:12.813Z,35.26
2018-07-20T11:41:13.337Z,35.08
2018-07-20T11:42:13.076Z,35.22
2018-07-20T11:43:13.375Z,35.24
2018-07-20T11:44:13.597Z,35.33
2018-07-20T11:45:13.797Z,35.30
2018-07-20T11:46:13.942Z,35.23
2018-07-20T11:47:14.038Z,35.36
2018-07-20T11:48:14.282Z,35.29
2018-07-20T11:49:14.308Z,35.22
2018-07-20T11:50:14.590Z,35.24
2018-07-20T11:51:14.725Z,35.39
2018-07-20T11:52:14.920Z,35.71
2018-07-20T11:53:15.251Z,35.85
2018-07-20T11:54:15.190Z,36.01
2018-07-20T11:55:15.334Z,36.16
2018-07-20T11:56:15.609Z,36.24
2018-07-20T11:57:15.730Z,36.51
2018-07-20T11:58:15.916Z,36.51
2018-07-20T11:59:16.160Z,36.65
2018-07-20T12:00:16.312Z,36.81
2018-07-20T12:01:16.538Z,37.01
2018-07-20T12:02:16.682Z,37.10
2018-07-20T12:03:16.892Z,37.42
2018-07-20T12:04:17.063Z,37.47
2018-07-20T12:05:17.252Z,37.84
2018-07-20T12:06:17.454Z,37.90
2018-07-20T12:07:17.541Z,37.74
2018-07-20T12:08:17.772Z,37.42
2018-07-20T12:09:17.941Z,37.48
2018-07-20T12:10:18.057Z,37.32
2018-07-20T12:11:18.243Z,36.93
2018-07-20T12:12:18.456Z,36.67
2018-07-20T12:13:18.607Z,36.43
2018-07-20T12:14:18.896Z,36.14
2018-07-20T12:15:18.944Z,35.64
2018-07-20T12:16:19.224Z,35.79
2018-07-20T12:17:19.341Z,35.79
2018-07-20T12:18:19.638Z,36.01
2018-07-20T12:19:19.863Z,36.23
2018-07-20T12:20:20.011Z,35.53
2018-07-20T12:21:20.237Z,35.78
2018-07-20T12:22:20.490Z,36.09
2018-07-20T12:23:20.643Z,36.33
2018-07-20T12:24:20.903Z,36.14
2018-07-20T12:25:21.264Z,35.83
2018-07-20T12:26:21.301Z,35.24
2018-07-20T12:27:21.355Z,35.15
2018-07-20T12:28:21.712Z,35.05
2018-07-20T12:29:21.913Z,35.12
2018-07-20T12:30:21.974Z,34.77
2018-07-20T12:31:22.299Z,35.10
2018-07-20T12:32:22.423Z,35.23
2018-07-20T12:33:22.598Z,35.30
2018-07-20T12:34:22.662Z,35.30
2018-07-20T12:35:22.919Z,35.53
2018-07-20T12:36:23.089Z,35.70
2018-07-20T12:37:23.230Z,35.98
2018-07-20T12:38:23.466Z,36.07
2018-07-20T12:39:23.672Z,36.21
2018-07-20T12:40:23.970Z,36.36
2018-07-20T12:41:24.036Z,36.42
2018-07-20T12:42:24.311Z,36.42
2018-07-20T12:43:24.517Z,36.52
2018-07-20T12:44:24.711Z,36.72
2018-07-20T12:45:24.770Z,36.93
2018-07-20T12:46:25.029Z,37.17
2018-07-20T12:47:25.295Z,37.45
2018-07-20T12:48:25.422Z,37.65
2018-07-20T12:49:25.555Z,37.87
2018-07-20T12:50:25.859Z,37.68
2018-07-20T12:51:25.995Z,37.70
2018-07-20T12:52:26.145Z,37.64
2018-07-20T12:53:26.385Z,37.77
2018-07-20T12:54:26.601Z,37.80
2018-07-20T12:55:26.748Z,37.94
2018-07-20T12:56:26.975Z,37.92
2018-07-20T12:57:27.177Z,37.89
2018-07-20T12:58:27.469Z,37.89
2018-07-20T12:59:27.674Z,37.75
2018-07-20T13:00:27.708Z,37.58
2018-07-20T13:01:27.908Z,37.35
2018-07-20T13:02:28.067Z,37.29
2018-07-20T13:03:28.266Z,37.29
2018-07-20T13:04:28.405Z,37.42
2018-07-20T13:05:28.570Z,37.25
2018-07-20T13:06:29.336Z,37.39
2018-07-20T13:07:29.229Z,37.20
2018-07-20T13:08:29.224Z,37.15
2018-07-20T13:09:29.417Z,37.10
2018-07-20T13:10:29.629Z,37.18
2018-07-20T13:11:29.751Z,37.06
2018-07-20T13:12:29.967Z,36.57
2018-07-20T13:13:30.290Z,36.37
2018-07-20T13:14:30.280Z,36.42
2018-07-20T13:15:30.466Z,36.51
2018-07-20T13:16:30.598Z,36.68
2018-07-20T13:17:30.844Z,36.96
2018-07-20T13:18:30.979Z,37.10
2018-07-20T13:19:31.172Z,37.20
2018-07-20T13:20:31.285Z,37.18
2018-07-20T13:21:31.738Z,36.96
2018-07-20T13:22:31.772Z,36.86
2018-07-20T13:23:32.132Z,36.86
2018-07-20T13:24:32.153Z,36.72
2018-07-20T13:25:32.293Z,36.92
2018-07-20T13:26:32.453Z,36.43
2018-07-20T13:27:32.584Z,36.57
2018-07-20T13:28:32.763Z,36.62
2018-07-20T13:29:32.952Z,36.52
2018-07-20T13:30:33.321Z,36.39
2018-07-20T13:31:33.324Z,36.30
2018-07-20T13:32:33.391Z,36.21
2018-07-20T13:33:33.600Z,36.08
2018-07-20T13:34:33.885Z,35.93
2018-07-20T13:35:34.067Z,35.67
2018-07-20T13:36:34.301Z,35.37
2018-07-20T13:37:34.343Z,35.37
2018-07-20T13:38:34.629Z,35.51
2018-07-20T13:39:34.707Z,35.56
2018-07-20T13:40:34.959Z,35.71
2018-07-20T13:41:35.134Z,35.67
2018-07-20T13:42:35.347Z,35.58
2018-07-20T13:43:35.441Z,35.80
2018-07-20T13:44:35.639Z,35.60
2018-07-20T13:45:35.819Z,35.66
2018-07-20T13:46:35.967Z,35.64
2018-07-20T13:47:36.273Z,35.76
2018-07-20T13:48:36.332Z,35.71
2018-07-20T13:49:36.599Z,35.73
2018-07-20T13:50:36.757Z,35.79
2018-07-20T13:51:36.879Z,35.45
2018-07-20T13:52:37.420Z,35.55
2018-07-20T13:53:37.373Z,35.66
2018-07-20T13:54:37.675Z,35.88
2018-07-20T13:55:37.722Z,35.78
2018-07-20T13:56:37.842Z,35.71
2018-07-20T13:57:38.204Z,35.71
2018-07-20T13:58:38.320Z,35.70
2018-07-20T13:59:38.449Z,35.68
2018-07-20T14:00:38.624Z,35.76
2018-07-20T14:01:38.798Z,36.17
2018-07-20T14:02:39.075Z,36.47
2018-07-20T14:03:39.148Z,36.76
2018-07-20T14:04:39.435Z,36.96
2018-07-20T14:05:39.499Z,36.88
2018-07-20T14:06:39.655Z,37.11
2018-07-20T14:07:39.911Z,37.28
2018-07-20T14:08:40.070Z,37.49
2018-07-20T14:09:40.280Z,37.72
2018-07-20T14:10:40.480Z,37.80
2018-07-20T14:11:40.540Z,37.89
2018-07-20T14:12:40.810Z,38.04
2018-07-20T14:13:40.966Z,38.49
2018-07-20T14:14:41.183Z,38.62
2018-07-20T14:15:41.283Z,38.86
2018-07-20T14:16:41.546Z,38.89
2018-07-20T14:17:41.777Z,38.95
2018-07-20T14:18:41.971Z,38.96
2018-07-20T14:19:42.228Z,39.18
2018-07-20T14:20:42.285Z,39.55
2018-07-20T14:21:42.520Z,39.65
2018-07-20T14:22:42.678Z,39.71
2018-07-20T14:23:42.932Z,39.58
2018-07-20T14:24:42.976Z,39.62
2018-07-20T14:25:43.352Z,39.63
2018-07-20T14:26:43.569Z,39.77
2018-07-20T14:27:43.646Z,39.83
2018-07-20T14:28:43.789Z,39.51
2018-07-20T14:29:44.043Z,39.40
2018-07-20T14:30:44.235Z,39.43
2018-07-20T14:31:44.572Z,39.34
2018-07-20T14:32:44.526Z,39.12
2018-07-20T14:33:44.744Z,39.21
2018-07-20T14:34:44.989Z,39.38
2018-07-20T14:35:45.241Z,39.41
2018-07-20T14:36:45.401Z,39.48
2018-07-20T14:37:45.591Z,39.43
2018-07-20T14:38:45.802Z,39.71
2018-07-20T14:39:45.952Z,39.81
2018-07-20T14:40:46.086Z,40.05
2018-07-20T14:41:46.279Z,39.51
2018-07-20T14:42:46.507Z,39.51
2018-07-20T14:43:46.713Z,39.52
2018-07-20T14:44:46.854Z,39.55
2018-07-20T14:45:47.096Z,39.67
2018-07-20T14:46:47.165Z,39.43
2018-07-20T14:47:47.580Z,39.24
2018-07-20T14:48:47.644Z,39.21
2018-07-20T14:49:47.837Z,39.22
2018-07-20T14:50:47.968Z,39.26
2018-07-20T14:51:48.127Z,39.44
2018-07-20T14:52:48.306Z,39.65
2018-07-20T14:53:48.424Z,39.58
2018-07-20T14:54:48.810Z,39.70
2018-07-20T14:55:49.029Z,39.77
2018-07-20T14:56:49.075Z,39.74
2018-07-20T14:57:49.172Z,39.89
2018-07-20T14:58:49.485Z,39.49
2018-07-20T14:59:49.610Z,39.46
2018-07-20T15:00:49.850Z,39.58
2018-07-20T15:01:50.021Z,39.41
2018-07-20T15:02:50.134Z,39.89
2018-07-20T15:03:50.329Z,39.53
2018-07-20T15:04:50.470Z,39.56
2018-07-20T15:05:50.633Z,39.77
2018-07-20T15:06:51.009Z,39.78
2018-07-20T15:07:51.060Z,39.00
2018-07-20T15:08:51.329Z,39.46
2018-07-20T15:09:51.367Z,39.14
2018-07-20T15:10:51.618Z,39.15
2018-07-20T15:11:51.831Z,38.76
2018-07-20T15:12:51.967Z,38.84
2018-07-20T15:13:52.246Z,39.18
2018-07-20T15:14:52.373Z,39.55
2018-07-20T15:15:52.535Z,39.48
2018-07-20T15:16:52.811Z,39.40
2018-07-20T15:17:52.925Z,39.40
2018-07-20T15:18:53.120Z,39.52
2018-07-20T15:19:53.276Z,39.43
2018-07-20T15:20:53.527Z,39.34
2018-07-20T15:21:53.596Z,39.09
2018-07-20T15:22:53.830Z,38.73
2018-07-20T15:23:54.048Z,38.54
2018-07-20T15:24:54.321Z,38.62
2018-07-20T15:25:54.390Z,38.54
2018-07-20T15:26:54.680Z,38.62
2018-07-20T15:27:54.862Z,38.55
2018-07-20T15:28:54.906Z,38.49
2018-07-20T15:29:55.139Z,38.48
2018-07-20T15:30:55.484Z,38.58
2018-07-20T15:31:55.629Z,38.55
2018-07-20T15:32:55.831Z,37.70
2018-07-20T15:33:55.964Z,37.49
2018-07-20T15:34:56.189Z,37.49
2018-07-20T15:35:56.400Z,37.83
2018-07-20T15:36:56.557Z,38.06
2018-07-20T15:37:56.639Z,38.20
2018-07-20T15:38:56.804Z,38.30
2018-07-20T15:39:57.149Z,38.04
2018-07-20T15:40:57.320Z,38.01
2018-07-20T15:41:57.496Z,37.71
2018-07-20T15:42:57.587Z,37.23
2018-07-20T15:43:57.849Z,37.08
2018-07-20T15:44:58.099Z,36.92
2018-07-20T15:46:05.966Z,36.67
2018-07-20T15:46:58.593Z,36.67
2018-07-20T15:47:58.601Z,36.67
2018-07-20T15:48:58.855Z,36.46
2018-07-20T15:49:59.024Z,36.43
2018-07-20T15:50:59.133Z,36.55
2018-07-20T15:53:59.801Z,36.57
2018-07-20T15:55:00.023Z,36.54
2018-07-20T15:56:00.253Z,36.33
2018-07-20T15:57:00.331Z,36.43
2018-07-20T15:58:00.489Z,36.62
2018-07-20T15:59:00.637Z,36.95
2018-07-20T16:00:00.904Z,36.92
2018-07-20T16:01:01.022Z,37.14
2018-07-20T16:02:01.232Z,37.14
2018-07-20T16:03:01.399Z,37.23
2018-07-20T16:04:01.705Z,37.42
2018-07-20T16:05:01.829Z,37.59
2018-07-20T16:06:02.072Z,37.68
2018-07-20T16:07:02.111Z,37.70
2018-07-20T16:08:02.325Z,37.67
2018-07-20T16:09:02.456Z,37.56
2018-07-20T16:10:02.706Z,37.68
2018-07-20T16:11:02.835Z,37.63
2018-07-20T16:12:03.023Z,37.37
2018-07-20T16:13:03.165Z,37.13
2018-07-20T16:14:03.393Z,37.10
2018-07-20T16:15:03.529Z,37.14
2018-07-20T16:16:03.819Z,36.89
2018-07-20T16:17:03.965Z,36.54
2018-07-20T16:18:04.135Z,36.73
2018-07-20T16:19:04.279Z,36.73
2018-07-20T16:20:04.485Z,36.61
2018-07-20T16:21:04.603Z,36.68
2018-07-20T16:22:04.934Z,36.58
2018-07-20T16:23:04.975Z,36.45
2018-07-20T16:24:05.237Z,36.54
2018-07-20T16:25:05.408Z,36.52
2018-07-20T16:26:05.639Z,36.64
2018-07-20T16:27:05.797Z,36.54
2018-07-20T16:28:05.901Z,36.62
2018-07-20T16:29:06.131Z,36.89
2018-07-20T16:30:06.222Z,36.83
2018-07-20T16:31:06.434Z,36.67
2018-07-20T16:32:06.720Z,36.74
2018-07-20T16:33:06.868Z,36.76
2018-07-20T16:34:07.063Z,36.80
2018-07-20T16:35:07.221Z,36.86
2018-07-20T16:36:07.416Z,36.67
2018-07-20T16:37:07.517Z,36.76
2018-07-20T16:38:07.778Z,36.54
2018-07-20T16:39:07.971Z,36.35
2018-07-20T16:40:08.126Z,36.39
2018-07-20T16:42:08.427Z,36.02
2018-07-20T16:43:08.579Z,36.12
2018-07-20T16:44:08.840Z,36.20
2018-07-20T16:45:09.195Z,36.16
2018-07-20T16:46:09.151Z,36.05
2018-07-20T16:47:09.424Z,36.04
2018-07-20T16:48:09.581Z,35.78
2018-07-20T16:49:09.771Z,35.61
2018-07-20T16:50:09.909Z,35.31
2018-07-20T16:51:10.135Z,34.73
2018-07-20T16:52:10.203Z,34.21
2018-07-20T16:53:10.464Z,33.95
2018-07-20T16:54:10.646Z,33.74
2018-07-20T16:55:10.780Z,33.49
2018-07-20T16:56:10.955Z,33.53
2018-07-20T16:57:11.091Z,33.45
2018-07-20T16:58:11.287Z,33.23
2018-07-20T16:59:11.485Z,33.17
2018-07-20T17:00:11.611Z,33.23
2018-07-20T17:01:11.868Z,33.12
2018-07-20T17:02:12.018Z,32.90
2018-07-20T17:03:12.188Z,32.75
2018-07-20T17:04:12.416Z,32.75
2018-07-20T17:05:12.537Z,32.65
2018-07-20T17:06:12.710Z,32.38
2018-07-20T17:07:12.942Z,32.31
2018-07-20T17:08:13.036Z,32.27
2018-07-20T17:09:13.258Z,32.23
2018-07-20T17:10:13.445Z,32.26
2018-07-20T17:11:13.608Z,32.27
2018-07-20T17:12:13.815Z,32.18
2018-07-20T17:13:13.957Z,32.19
2018-07-20T17:14:14.138Z,32.04
2018-07-20T17:15:14.279Z,31.97
2018-07-20T17:16:14.483Z,31.97
2018-07-20T17:17:14.737Z,32.04
2018-07-20T17:18:14.930Z,32.04
2018-07-20T17:19:15.107Z,32.16
2018-07-20T17:20:15.219Z,32.00
2018-07-20T17:21:15.392Z,32.03
2018-07-20T17:22:15.600Z,31.80
2018-07-20T17:23:15.749Z,31.62
2018-07-20T17:24:15.936Z,31.58
2018-07-20T17:25:16.042Z,31.58
2018-07-20T17:26:16.282Z,31.61
2018-07-20T17:27:16.402Z,31.62
2018-07-20T17:28:16.736Z,31.55
2018-07-20T17:29:16.819Z,31.66
2018-07-20T17:30:16.934Z,31.59
2018-07-20T17:31:17.129Z,31.61
2018-07-20T17:32:17.272Z,31.42
2018-07-20T17:33:17.455Z,31.54
2018-07-20T17:34:17.674Z,31.44
2018-07-20T17:35:17.890Z,31.43
2018-07-20T17:36:18.124Z,31.52
2018-07-20T17:37:18.257Z,31.44
2018-07-20T17:38:18.367Z,31.31
2018-07-20T17:39:18.502Z,31.34
2018-07-20T17:40:18.765Z,31.28
2018-07-20T17:41:18.850Z,31.22
2018-07-20T17:42:19.144Z,31.22
2018-07-20T17:43:19.568Z,31.21
2018-07-20T17:44:19.469Z,31.28
2018-07-20T17:45:19.644Z,31.25
2018-07-20T17:46:19.856Z,31.27
2018-07-20T17:47:19.950Z,31.18
2018-07-20T17:48:20.102Z,31.14
2018-07-20T17:49:20.356Z,31.17
2018-07-20T17:50:20.574Z,30.99
2018-07-20T17:51:20.747Z,30.88
2018-07-20T17:52:20.903Z,30.87
2018-07-20T17:53:21.103Z,30.85
2018-07-20T17:54:21.247Z,30.84
2018-07-20T17:55:21.432Z,30.78
2018-07-20T17:56:21.567Z,30.69
2018-07-20T17:57:21.693Z,30.78
2018-07-20T17:58:21.970Z,30.69
2018-07-20T17:59:22.085Z,30.66
2018-07-20T18:00:22.255Z,30.59
2018-07-20T18:01:22.364Z,30.51
2018-07-20T18:02:22.775Z,30.48
2018-07-20T18:03:22.981Z,30.37
2018-07-20T18:04:23.099Z,30.35
2018-07-20T18:05:23.164Z,30.31
2018-07-20T18:06:23.389Z,30.24
2018-07-20T18:07:23.553Z,30.25
2018-07-20T18:08:23.708Z,30.21
2018-07-20T18:09:23.847Z,30.23
2018-07-20T18:10:24.115Z,30.12
2018-07-20T18:11:24.174Z,30.10
2018-07-20T18:12:24.362Z,30.12
2018-07-20T18:13:24.698Z,30.13
2018-07-20T18:14:24.904Z,29.94
2018-07-20T18:15:24.968Z,29.95
2018-07-20T18:16:25.150Z,29.93
2018-07-20T18:17:25.524Z,29.93
2018-07-20T18:18:28.343Z,29.90
2018-07-20T18:25:26.145Z,29.63
2018-07-20T18:27:31.555Z,29.49
2018-07-20T18:28:28.316Z,29.39
2018-07-20T18:30:37.144Z,29.23
2018-07-20T18:34:23.102Z,29.12
2018-07-20T18:35:27.987Z,28.96
2018-07-20T18:36:21.480Z,28.91
2018-07-20T18:38:21.042Z,28.81
2018-07-20T18:39:20.157Z,28.72
2018-07-20T18:40:20.227Z,28.74
2018-07-20T18:41:20.403Z,28.70
2018-07-20T18:42:20.569Z,28.64
2018-07-20T18:43:20.745Z,28.49
2018-07-20T18:44:20.884Z,28.49
2018-07-20T18:45:21.013Z,28.39
2018-07-20T18:46:21.179Z,28.25
2018-07-20T18:47:21.383Z,28.23
2018-07-20T18:48:21.575Z,28.12
2018-07-20T18:49:22.025Z,28.05
2018-07-20T18:50:21.902Z,27.87
2018-07-20T18:51:23.764Z,27.82
2018-07-20T18:52:22.331Z,27.64
2018-07-20T18:53:22.418Z,27.59
2018-07-20T18:54:22.540Z,27.55
2018-07-20T18:55:22.688Z,27.54
2018-07-20T18:56:23.337Z,27.47
2018-07-20T19:00:22.985Z,27.11
2018-07-20T19:01:23.950Z,27.08
2018-07-20T19:02:26.863Z,27.03
2018-07-20T19:03:23.959Z,26.97
2018-07-20T19:04:27.172Z,26.90
2018-07-20T19:05:27.596Z,26.80
2018-07-20T19:06:25.678Z,26.88
2018-07-20T19:07:25.484Z,26.81
2018-07-20T19:08:28.573Z,26.74
2018-07-20T19:09:36.576Z,26.62
2018-07-20T19:11:28.368Z,26.55
2018-07-20T19:12:25.132Z,26.38
2018-07-20T19:13:25.745Z,26.33
2018-07-20T19:14:29.836Z,26.26
2018-07-20T19:15:29.628Z,26.23
2018-07-20T19:16:34.095Z,26.07
2018-07-20T19:17:24.837Z,26.05
2018-07-20T19:18:23.989Z,26.05
2018-07-20T19:19:23.953Z,26.02
2018-07-20T19:20:24.160Z,26.02
2018-07-20T19:21:24.415Z,25.85
2018-07-20T19:22:24.630Z,25.85
2018-07-20T19:23:24.779Z,25.81
2018-07-20T19:24:24.931Z,25.81
2018-07-20T19:25:27.086Z,25.69
2018-07-20T19:26:25.396Z,25.69
2018-07-20T19:27:25.667Z,25.70
2018-07-20T19:28:25.820Z,25.51
2018-07-20T19:29:25.895Z,25.58
2018-07-20T19:30:26.168Z,25.51
2018-07-20T19:31:26.366Z,25.40
2018-07-20T19:32:26.366Z,25.38
2018-07-20T19:33:26.597Z,25.33
2018-07-20T19:34:26.870Z,25.22
2018-07-20T19:35:27.078Z,25.25
2018-07-20T19:36:27.374Z,25.31
2018-07-20T19:37:27.430Z,25.23
2018-07-20T19:38:27.670Z,25.21
2018-07-20T19:39:27.985Z,25.16
2018-07-20T19:40:28.025Z,25.14
2018-07-20T19:41:28.267Z,25.11
2018-07-20T19:42:28.489Z,25.01
2018-07-20T19:43:28.735Z,24.88
2018-07-20T19:44:28.741Z,24.89
2018-07-20T19:45:28.861Z,24.86
2018-07-20T19:46:30.403Z,24.70
2018-07-20T19:47:29.494Z,24.65
2018-07-20T19:48:29.989Z,24.58
2018-07-20T19:49:29.562Z,24.48
2018-07-20T19:50:29.812Z,24.42
2018-07-20T19:51:30.798Z,24.20
2018-07-20T19:52:31.100Z,24.17
2018-07-20T19:53:30.675Z,24.06
2018-07-20T19:54:31.518Z,24.02
2018-07-20T19:55:30.738Z,24.03
2018-07-20T19:56:31.299Z,23.86
2018-07-20T19:57:31.474Z,23.81
2018-07-20T19:58:31.400Z,23.80
2018-07-20T19:59:31.359Z,23.77
2018-07-20T20:00:31.433Z,23.69
2018-07-20T20:01:31.551Z,23.61
2018-07-20T20:02:31.950Z,23.56
2018-07-20T20:03:32.336Z,23.40
2018-07-20T20:04:32.996Z,23.43
2018-07-20T20:05:32.492Z,23.36
2018-07-20T20:06:32.997Z,23.40
2018-07-20T20:07:32.907Z,23.37
2018-07-20T20:08:33.068Z,23.36
2018-07-20T20:09:33.251Z,23.28
2018-07-20T20:10:33.485Z,23.25
2018-07-20T20:11:33.477Z,23.20
2018-07-20T20:12:33.610Z,23.23
2018-07-20T20:13:33.917Z,23.21
2018-07-20T20:14:34.153Z,23.20
2018-07-20T20:15:34.514Z,23.18
2018-07-20T20:16:34.572Z,23.10
2018-07-20T20:17:34.777Z,23.21
2018-07-20T20:18:34.826Z,23.13
2018-07-20T20:19:35.046Z,22.99
2018-07-20T20:20:35.267Z,22.98
2018-07-20T20:21:35.607Z,22.99
2018-07-20T20:22:35.807Z,23.05
2018-07-20T20:23:36.007Z,22.98
2018-07-20T20:24:36.061Z,22.91
2018-07-20T20:25:36.210Z,22.90
2018-07-20T20:26:36.607Z,22.88
2018-07-20T20:27:36.845Z,22.76
2018-07-20T20:28:36.761Z,22.75
2018-07-20T20:29:36.950Z,22.72
2018-07-20T20:30:37.043Z,22.76
2018-07-20T20:31:37.381Z,22.70
2018-07-20T20:32:37.647Z,22.62
2018-07-20T20:33:37.590Z,22.63
2018-07-20T20:34:37.828Z,22.65
2018-07-20T20:35:38.172Z,22.55
2018-07-20T20:36:38.128Z,22.57
2018-07-20T20:37:38.346Z,22.53
2018-07-20T20:38:38.419Z,22.53
2018-07-20T20:39:38.778Z,22.51